Time;durP1;ratioP1;P1;durP2;ratioP2;P2;SDS_P1;SDS_P2;PMS_P1;PMS_P2;Temp;Humidity;BMP_temperature;BMP_pressure;BME280_temperature;BME280_humidity;BME280_pressure;Samples;Min_cycle;Max_cycle;Signal;HPM_P1;HPM_P2
2021/05/17 00:00:11;;;;;;;0.00;0.00;;;10.40;99.90;;;;;;5038461;28;20021;-74
2021/05/17 00:02:37;;;;;;;0.30;0.00;;;10.50;99.90;;;;;;5069572;23;20049;-73
2021/05/17 00:05:04;;;;;;;0.20;0.00;;;10.40;99.90;;;;;;5039279;28;20127;-73
2021/05/17 00:07:30;;;;;;;0.10;0.00;;;10.40;99.90;;;;;;5038237;28;20029;-74
2021/05/17 00:09:56;;;;;;;0.00;0.00;;;10.40;99.90;;;;;;5038623;28;20580;-72
2021/05/17 00:12:21;;;;;;;1.45;0.00;;;10.40;99.90;;;;;;5056377;28;20083;-71
2021/05/17 00:14:47;;;;;;;0.45;0.10;;;10.30;99.90;;;;;;5056144;28;20021;-74
2021/05/17 00:17:13;;;;;;;0.25;0.00;;;10.40;99.90;;;;;;5055839;28;20039;-71
2021/05/17 00:19:39;;;;;;;0.30;0.00;;;10.30;99.90;;;;;;5038689;28;20102;-73
2021/05/17 00:22:08;;;;;;;0.00;0.00;;;10.30;99.90;;;;;;5056213;28;20470;-75
2021/05/17 00:24:34;;;;;;;0.00;0.00;;;10.30;99.90;;;;;;5054531;28;20051;-74
2021/05/17 00:26:59;;;;;;;1.35;0.00;;;10.30;99.90;;;;;;5056307;28;20454;-73
2021/05/17 00:29:26;;;;;;;1.65;0.45;;;10.30;99.90;;;;;;5055961;28;20065;-74
2021/05/17 00:31:51;;;;;;;0.00;0.00;;;10.20;99.90;;;;;;5055866;28;20025;-75
2021/05/17 00:34:17;;;;;;;0.82;0.00;;;10.20;99.90;;;;;;5055751;28;20090;-73
2021/05/17 00:36:44;;;;;;;1.15;0.00;;;10.20;99.90;;;;;;5055456;28;20048;-74
2021/05/17 00:39:11;;;;;;;0.38;0.10;;;10.20;99.90;;;;;;5055611;28;20035;-73
2021/05/17 00:41:38;;;;;;;0.00;0.00;;;10.20;99.90;;;;;;5055662;28;20123;-75
2021/05/17 00:44:05;;;;;;;1.65;0.00;;;10.20;99.90;;;;;;5056008;28;20434;-75
2021/05/17 00:46:32;;;;;;;0.00;0.00;;;10.20;99.90;;;;;;5056277;28;20108;-73
2021/05/17 00:48:58;;;;;;;0.90;0.00;;;10.30;99.90;;;;;;5037634;28;20025;-74
2021/05/17 00:51:24;;;;;;;0.00;0.00;;;10.30;99.90;;;;;;5055793;28;20033;-74
2021/05/17 00:53:51;;;;;;;0.00;0.00;;;10.30;99.90;;;;;;5076688;22;20060;-74
2021/05/17 00:56:17;;;;;;;0.00;0.00;;;10.30;99.90;;;;;;5055600;28;20017;-75
2021/05/17 00:58:42;;;;;;;1.67;0.10;;;10.30;99.90;;;;;;5055213;28;20488;-74
2021/05/17 01:01:08;;;;;;;1.55;0.00;;;10.30;99.90;;;;;;5055539;28;20025;-74
2021/05/17 01:03:35;;;;;;;1.30;0.00;;;10.30;99.90;;;;;;5055403;28;20108;-72
2021/05/17 01:06:03;;;;;;;0.98;0.00;;;10.30;99.90;;;;;;5065158;23;20040;-74
2021/05/17 01:08:39;;;;;;;0.00;0.00;;;10.30;99.90;;;;;;5057501;28;20020;-73
2021/05/17 01:11:05;;;;;;;0.40;0.10;;;10.30;99.90;;;;;;5075596;28;20029;-75
2021/05/17 01:13:32;;;;;;;1.08;0.00;;;10.30;99.90;;;;;;5050728;28;20102;-74
2021/05/17 01:16:00;;;;;;;0.00;0.00;;;10.40;99.90;;;;;;5055228;28;20104;-73
2021/05/17 01:18:27;;;;;;;1.85;0.00;;;10.40;99.90;;;;;;5037467;28;20425;-75
2021/05/17 01:20:57;;;;;;;1.95;0.10;;;10.40;99.90;;;;;;5054959;28;20025;-75
2021/05/17 01:25:51;;;;;;;0.28;0.00;;;10.40;99.90;;;;;;5054767;28;20486;-75
2021/05/17 01:28:21;;;;;;;0.75;0.10;;;10.40;99.90;;;;;;5036726;28;20021;-74
2021/05/17 01:30:48;;;;;;;1.92;0.00;;;10.40;99.90;;;;;;5036933;28;20021;-72
2021/05/17 01:33:14;;;;;;;0.08;0.00;;;10.40;99.90;;;;;;5054979;28;20448;-73
2021/05/17 01:35:41;;;;;;;0.80;0.00;;;10.40;99.90;;;;;;5054884;28;20029;-73
2021/05/17 01:38:08;;;;;;;1.48;0.52;;;10.30;99.90;;;;;;5036832;28;20032;-74
2021/05/17 01:40:37;;;;;;;0.90;0.00;;;10.30;99.90;;;;;;5054297;28;21614;-74
2021/05/17 01:43:04;;;;;;;0.93;0.30;;;10.30;99.90;;;;;;5054353;28;20025;-74
2021/05/17 01:45:30;;;;;;;1.77;0.15;;;10.30;99.90;;;;;;5036603;28;20371;-73
2021/05/17 01:47:58;;;;;;;3.13;0.17;;;10.30;99.90;;;;;;5036646;28;20017;-74
2021/05/17 01:50:25;;;;;;;3.50;0.30;;;10.30;99.90;;;;;;5054254;28;20254;-72
2021/05/17 01:52:51;;;;;;;1.98;0.10;;;10.40;99.90;;;;;;5054475;28;20013;-74
2021/05/17 01:55:17;;;;;;;0.30;0.10;;;10.30;99.90;;;;;;5054064;28;20032;-75
2021/05/17 01:57:43;;;;;;;1.75;0.40;;;10.30;99.90;;;;;;5036459;28;20032;-74
2021/05/17 02:00:12;;;;;;;1.65;0.38;;;10.30;99.90;;;;;;5054343;28;20021;-74
2021/05/17 02:02:38;;;;;;;;;;;10.30;99.90;;;;;;5054353;28;20025;-74
2021/05/17 02:05:07;;;;;;;2.25;0.43;;;10.30;99.90;;;;;;5035552;28;19916;-74
2021/05/17 02:07:33;;;;;;;5.00;1.10;;;10.40;99.90;;;;;;5036383;28;20116;-73
2021/05/17 02:10:00;;;;;;;2.42;0.50;;;10.40;99.90;;;;;;5035939;28;20059;-73
2021/05/17 02:12:27;;;;;;;1.45;0.45;;;10.30;99.90;;;;;;5051826;28;20098;-72
2021/05/17 02:14:54;;;;;;;3.03;0.65;;;10.30;99.90;;;;;;5066532;23;20041;-75
2021/05/17 02:17:24;;;;;;;4.97;0.85;;;10.30;99.90;;;;;;5040564;28;20024;-74
2021/05/17 02:19:50;;;;;;;3.85;0.70;;;10.30;99.90;;;;;;5073816;28;20020;-72
2021/05/17 02:22:21;;;;;;;3.25;1.08;;;10.30;99.90;;;;;;5073636;28;20096;-73
2021/05/17 02:24:47;;;;;;;1.50;0.80;;;10.30;99.90;;;;;;5073728;28;20035;-73
2021/05/17 02:27:17;;;;;;;3.65;0.80;;;10.30;99.90;;;;;;5073843;28;20058;-73
2021/05/17 02:29:44;;;;;;;2.22;0.95;;;10.40;99.90;;;;;;5056266;28;20025;-73
2021/05/17 02:32:10;;;;;;;5.47;1.00;;;10.40;99.90;;;;;;5065990;28;20048;-73
2021/05/17 02:34:36;;;;;;;2.38;0.68;;;10.40;99.90;;;;;;5074361;22;20048;-73
2021/05/17 02:37:03;;;;;;;1.10;0.80;;;10.30;99.90;;;;;;5073706;28;20185;-73
2021/05/17 02:39:29;;;;;;;3.55;0.80;;;10.30;99.90;;;;;;5073758;28;20017;-73
2021/05/17 02:41:56;;;;;;;2.90;0.73;;;10.30;99.90;;;;;;5073955;28;20021;-73
2021/05/17 02:44:22;;;;;;;2.67;1.05;;;10.30;99.90;;;;;;5073832;28;20028;-72
2021/05/17 02:46:52;;;;;;;6.05;1.00;;;10.30;99.90;;;;;;5081695;23;20033;-73
2021/05/17 02:49:18;;;;;;;6.80;1.90;;;10.40;99.90;;;;;;5073739;28;20033;-74
2021/05/17 02:51:44;;;;;;;2.83;1.63;;;10.30;99.90;;;;;;5073691;28;20017;-73
2021/05/17 02:54:28;;;;;;;4.25;1.33;;;10.30;99.90;;;;;;5071808;28;20043;-76
2021/05/17 02:56:57;;;;;;;3.85;1.30;;;10.30;99.90;;;;;;5036117;28;20040;-75
2021/05/17 02:59:34;;;;;;;3.33;1.38;;;10.30;99.90;;;;;;5038249;28;20021;-74
2021/05/17 03:02:05;;;;;;;1.95;1.00;;;10.40;99.90;;;;;;5055508;28;20539;-71
2021/05/17 03:04:32;;;;;;;3.17;1.70;;;10.30;99.90;;;;;;5073562;28;20035;-72
2021/05/17 03:07:10;;;;;;;2.88;1.40;;;10.40;99.90;;;;;;5073557;28;20025;-74
2021/05/17 03:09:37;;;;;;;4.65;1.70;;;10.30;99.90;;;;;;5110244;22;20041;-75
2021/05/17 03:12:03;;;;;;;3.63;1.33;;;11.70;99.90;;;;;;5073796;28;20458;-73
2021/05/17 03:14:30;;;;;;;3.45;1.98;;;10.30;99.90;;;;;;5073662;28;20021;-73
2021/05/17 03:16:59;;;;;;;4.13;1.63;;;10.40;99.90;;;;;;5073906;28;20024;-74
2021/05/17 03:19:25;;;;;;;7.07;2.30;;;10.40;99.90;;;;;;5055738;28;20024;-75
2021/05/17 03:21:56;;;;;;;4.88;2.35;;;10.40;99.90;;;;;;5073827;28;20038;-74
2021/05/17 03:24:23;;;;;;;4.13;1.98;;;10.40;99.90;;;;;;5077990;28;20020;-75
2021/05/17 03:26:52;;;;;;;4.45;2.25;;;10.40;99.90;;;;;;5059648;28;20021;-75
2021/05/17 03:29:18;;;;;;;5.28;1.70;;;10.30;99.90;;;;;;5048052;28;20017;-73
2021/05/17 03:31:43;;;;;;;4.18;1.60;;;10.40;99.90;;;;;;5057160;28;20029;-75
2021/05/17 03:34:09;;;;;;;6.40;2.45;;;10.50;99.90;;;;;;5039233;28;20470;-74
2021/05/17 03:36:34;;;;;;;4.95;2.25;;;10.30;99.90;;;;;;5088298;22;20139;-75
2021/05/17 03:39:00;;;;;;;5.40;2.60;;;10.30;99.90;;;;;;5076980;28;20083;-74
2021/05/17 03:41:25;;;;;;;4.75;1.90;;;10.30;99.90;;;;;;5077286;28;20033;-73
2021/05/17 03:43:51;;;;;;;5.28;2.35;;;10.30;99.90;;;;;;5076991;28;20028;-75
2021/05/17 03:46:17;;;;;;;3.38;2.38;;;10.30;99.90;;;;;;5063929;28;20033;-74
2021/05/17 03:51:16;;;;;;;4.78;2.15;;;10.30;99.90;;;;;;5106962;22;20044;-75
2021/05/17 03:53:41;;;;;;;5.57;1.60;;;10.30;99.90;;;;;;5050202;28;20025;-75
2021/05/17 03:56:07;;;;;;;6.07;2.22;;;10.30;99.90;;;;;;5038649;28;20130;-75
2021/05/17 03:58:33;;;;;;;4.30;1.73;;;10.30;99.90;;;;;;5056298;28;20520;-75
2021/05/17 04:01:00;;;;;;;9.65;2.25;;;10.40;99.90;;;;;;5056380;28;20540;-75
2021/05/17 04:03:26;;;;;;;5.05;2.10;;;10.40;99.90;;;;;;5071031;22;20029;-75
2021/05/17 04:06:10;;;;;;;2.90;1.52;;;11.20;99.90;;;;;;5076250;28;20032;-75
2021/05/17 04:13:55;;;;;;;3.83;1.20;;;10.40;99.90;;;;;;5089461;22;20102;-74
2021/05/17 04:16:21;;;;;;;;;;;10.50;99.90;;;;;;5058370;28;20021;-73
2021/05/17 04:18:47;;;;;;;6.72;1.88;;;10.50;99.90;;;;;;5057863;28;20327;-73
2021/05/17 04:21:13;;;;;;;6.20;1.73;;;10.60;99.90;;;;;;5076453;28;20050;-74
2021/05/17 04:23:39;;;;;;;3.53;1.25;;;10.70;99.90;;;;;;5065586;28;20104;-73
2021/05/17 04:26:04;;;;;;;3.85;1.23;;;10.70;99.90;;;;;;5055936;28;20095;-73
2021/05/17 04:28:30;;;;;;;1.95;1.25;;;10.70;99.90;;;;;;5064155;28;20481;-73
2021/05/17 04:30:56;;;;;;;5.38;1.35;;;10.70;99.90;;;;;;5075619;28;20017;-73
2021/05/17 04:33:22;;;;;;;2.22;1.52;;;10.80;99.90;;;;;;5049899;28;20049;-73
2021/05/17 04:35:48;;;;;;;2.75;1.30;;;10.70;99.90;;;;;;5054933;28;20390;-74
2021/05/17 04:38:13;;;;;;;4.45;1.42;;;10.80;99.90;;;;;;5046759;28;20028;-74
2021/05/17 04:40:39;;;;;;;3.22;1.17;;;10.70;99.90;;;;;;5075568;28;20052;-74
2021/05/17 04:43:05;;;;;;;6.50;1.08;;;10.70;99.90;;;;;;5049892;28;20102;-74
2021/05/17 04:45:30;;;;;;;2.63;0.82;;;10.70;99.90;;;;;;5045149;28;20032;-73
2021/05/17 04:47:56;;;;;;;1.92;0.95;;;10.70;99.90;;;;;;5051232;28;20091;-72
2021/05/17 04:50:23;;;;;;;3.17;1.25;;;10.70;99.90;;;;;;5055507;28;20482;-72
2021/05/17 04:52:49;;;;;;;2.92;1.15;;;10.70;99.90;;;;;;5037471;28;20060;-73
2021/05/17 04:55:15;;;;;;;2.40;1.15;;;10.70;99.90;;;;;;5054076;28;20025;-72
2021/05/17 04:57:40;;;;;;;4.63;0.95;;;10.60;99.90;;;;;;5057281;28;20062;-72
2021/05/17 05:00:08;;;;;;;2.72;1.00;;;10.60;99.90;;;;;;5075049;28;20029;-72
2021/05/17 05:02:34;;;;;;;3.95;1.90;;;10.70;99.90;;;;;;5074830;28;20555;-74
2021/05/17 05:05:00;;;;;;;2.83;1.48;;;10.70;99.90;;;;;;5072583;28;20036;-73
2021/05/17 05:07:25;;;;;;;3.38;2.00;;;10.70;99.90;;;;;;5055356;28;20017;-75
2021/05/17 05:09:51;;;;;;;3.47;1.70;;;10.70;99.90;;;;;;5056623;28;20104;-74
2021/05/17 05:12:17;;;;;;;5.40;2.47;;;10.70;99.90;;;;;;5037809;28;20075;-74
2021/05/17 05:14:42;;;;;;;5.78;2.53;;;10.80;99.90;;;;;;5055446;28;20053;-74
2021/05/17 05:17:08;;;;;;;8.48;3.42;;;10.80;99.90;;;;;;5064977;28;20029;-73
2021/05/17 05:19:34;;;;;;;6.30;2.95;;;10.80;99.90;;;;;;5054947;28;20040;-73
2021/05/17 05:21:59;;;;;;;6.65;3.35;;;10.80;99.90;;;;;;5054900;28;20170;-73
2021/05/17 05:24:25;;;;;;;5.82;2.55;;;10.80;99.90;;;;;;5036645;28;20059;-72
2021/05/17 05:30:00;;;;;;;4.65;2.20;;;10.90;99.90;;;;;;5067736;22;20094;-75
2021/05/17 05:32:35;;;;;;;5.70;2.33;;;10.90;99.90;;;;;;5056582;28;20044;-74
2021/05/17 05:35:00;;;;;;;8.55;2.60;;;10.90;99.90;;;;;;5055896;28;20028;-73
2021/05/17 05:37:26;;;;;;;5.57;2.20;;;10.90;99.90;;;;;;5054707;28;20478;-73
2021/05/17 05:39:51;;;;;;;5.95;1.88;;;10.90;99.90;;;;;;5056427;28;20029;-73
2021/05/17 05:42:17;;;;;;;5.72;2.40;;;11.00;99.90;;;;;;5054499;28;20024;-74
2021/05/17 05:44:44;;;;;;;5.85;2.53;;;11.00;99.90;;;;;;5054169;28;20043;-72
2021/05/17 05:47:17;;;;;;;7.05;2.20;;;11.00;99.90;;;;;;5053873;28;20064;-72
2021/05/17 05:49:44;;;;;;;5.25;2.22;;;11.10;99.90;;;;;;5036195;28;20025;-72
2021/05/17 05:52:10;;;;;;;8.00;2.08;;;11.10;99.90;;;;;;5036218;28;20017;-72
2021/05/17 05:54:36;;;;;;;6.47;2.25;;;11.10;99.90;;;;;;5053873;28;20480;-74
2021/05/17 05:57:02;;;;;;;5.47;2.65;;;11.20;99.90;;;;;;5053790;28;20067;-74
2021/05/17 05:59:28;;;;;;;8.90;2.40;;;11.30;99.90;;;;;;5054303;28;20060;-73
2021/05/17 06:01:54;;;;;;;7.85;1.88;;;11.30;99.90;;;;;;5074215;28;20108;-74
2021/05/17 06:04:21;;;;;;;6.43;2.10;;;12.20;99.90;;;;;;5058834;28;20107;-73
2021/05/17 06:06:47;;;;;;;5.90;2.42;;;11.50;99.90;;;;;;5054117;28;20013;-72
2021/05/17 06:09:12;;;;;;;6.18;2.35;;;11.50;99.90;;;;;;5053811;28;20079;-72
2021/05/17 06:11:38;;;;;;;8.05;2.60;;;11.50;99.90;;;;;;5053751;28;20105;-74
2021/05/17 06:14:04;;;;;;;5.95;2.63;;;11.40;99.90;;;;;;5053419;28;20029;-73
2021/05/17 06:16:31;;;;;;;3.83;1.95;;;11.40;99.90;;;;;;5035624;28;20033;-76
2021/05/17 06:18:57;;;;;;;6.43;2.47;;;11.40;99.90;;;;;;5054265;28;20029;-75
2021/05/17 06:21:23;;;;;;;4.93;2.47;;;11.40;99.90;;;;;;5036649;28;20025;-74
2021/05/17 06:23:49;;;;;;;5.15;2.10;;;11.40;99.90;;;;;;5054016;28;20035;-74
2021/05/17 06:26:15;;;;;;;4.05;2.33;;;11.40;99.90;;;;;;5035622;28;20110;-73
2021/05/17 06:28:40;;;;;;;4.57;2.45;;;11.40;99.90;;;;;;5060247;28;20561;-73
2021/05/17 06:31:07;;;;;;;7.95;2.03;;;11.40;99.90;;;;;;5055929;28;20035;-73
2021/05/17 06:33:35;;;;;;;5.72;1.88;;;11.40;99.90;;;;;;5073690;28;20043;-74
2021/05/17 06:36:01;;;;;;;5.18;1.85;;;11.30;99.90;;;;;;5071980;28;20021;-73
2021/05/17 06:38:29;;;;;;;3.03;1.95;;;11.30;99.90;;;;;;5053172;28;20032;-73
2021/05/17 06:40:56;;;;;;;4.10;1.92;;;11.30;99.90;;;;;;5035252;28;20021;-74
2021/05/17 06:43:22;;;;;;;8.10;2.92;;;11.30;99.90;;;;;;5052986;28;20370;-73
2021/05/17 06:45:48;;;;;;;6.35;2.65;;;11.30;99.90;;;;;;5048316;28;20085;-74
2021/05/17 06:48:13;;;;;;;5.45;2.75;;;11.40;99.90;;;;;;5052189;28;20043;-75
2021/05/17 06:50:39;;;;;;;8.38;3.03;;;11.40;99.90;;;;;;5052688;28;20032;-74
2021/05/17 06:53:05;;;;;;;7.22;2.72;;;11.40;99.90;;;;;;5053433;28;20520;-74
2021/05/17 06:56:18;;;;;;;8.85;3.17;;;11.50;99.90;;;;;;5034849;28;20025;-73
2021/05/17 06:58:33;;;;;;;7.75;3.70;;;11.50;99.90;;;;;;5041707;28;20033;-75
2021/05/17 07:00:59;;;;;;;7.88;2.38;;;11.60;99.90;;;;;;5035118;28;20028;-76
2021/05/17 07:03:25;;;;;;;5.90;3.00;;;11.60;99.90;;;;;;5035288;28;20063;-73
2021/05/17 07:05:55;;;;;;;12.10;2.90;;;11.70;99.90;;;;;;5054027;28;20029;-75
2021/05/17 07:13:49;;;;;;;6.22;3.05;;;12.10;99.90;;;;;;5073182;28;20040;-74
2021/05/17 07:16:16;;;;;;;4.85;2.40;;;12.20;99.90;;;;;;5033156;28;20395;-73
2021/05/17 07:18:41;;;;;;;4.80;2.20;;;12.40;99.90;;;;;;5034649;28;20393;-73
2021/05/17 07:23:42;;;;;;;5.82;2.58;;;12.50;99.90;;;;;;5052649;28;20028;-76
2021/05/17 07:26:11;;;;;;;7.57;2.22;;;12.50;99.90;;;;;;5053428;28;20025;-72
2021/05/17 07:28:37;;;;;;;;;;;12.60;99.90;;;;;;5053324;28;20028;-72
2021/05/17 07:31:05;;;;;;;7.53;2.38;;;12.40;99.90;;;;;;5052732;28;20362;-72
2021/05/17 07:33:31;;;;;;;10.82;2.35;;;12.30;99.90;;;;;;5052711;28;20123;-72
2021/05/17 07:35:58;;;;;;;6.13;1.73;;;12.20;99.90;;;;;;5034973;28;20124;-72
2021/05/17 07:38:29;;;;;;;2.72;1.73;;;12.10;99.90;;;;;;5034651;28;20037;-72
2021/05/17 07:40:55;;;;;;;5.03;1.88;;;12.10;99.90;;;;;;5035515;28;20385;-75
2021/05/17 07:43:21;;;;;;;5.38;1.85;;;12.00;99.90;;;;;;5047713;28;20021;-75
2021/05/17 07:45:47;;;;;;;2.95;1.48;;;12.00;99.90;;;;;;5055248;28;20103;-73
2021/05/17 07:48:13;;;;;;;3.30;1.58;;;12.00;99.90;;;;;;5072720;28;20023;-72
2021/05/17 07:50:39;;;;;;;3.75;2.10;;;12.00;99.90;;;;;;5071634;28;20076;-72
2021/05/17 07:53:04;;;;;;;6.97;2.22;;;11.90;99.90;;;;;;5073024;28;20044;-72
2021/05/17 07:55:30;;;;;;;3.13;1.42;;;12.00;99.90;;;;;;5054823;28;20397;-72
2021/05/17 07:57:55;;;;;;;3.45;1.60;;;12.00;99.90;;;;;;5072606;28;20551;-72
2021/05/17 08:00:21;;;;;;;2.40;1.65;;;12.10;99.90;;;;;;5072706;28;20047;-74
2021/05/17 08:02:46;;;;;;;4.05;1.80;;;12.10;99.90;;;;;;5049656;28;20070;-76
2021/05/17 08:05:12;;;;;;;5.10;1.88;;;12.20;99.90;;;;;;5053162;28;20036;-76
2021/05/17 08:07:38;;;;;;;2.72;1.58;;;12.30;99.90;;;;;;5053066;28;20501;-75
2021/05/17 08:10:05;;;;;;;4.75;2.20;;;12.40;99.90;;;;;;5037415;28;20017;-75
2021/05/17 08:12:31;;;;;;;6.63;2.42;;;12.50;99.90;;;;;;5038706;28;20477;-75
2021/05/17 08:15:00;;;;;;;3.58;1.55;;;12.60;99.90;;;;;;5056035;28;20056;-75
2021/05/17 08:17:25;;;;;;;4.20;2.13;;;12.70;99.90;;;;;;5038493;28;20056;-73
2021/05/17 08:19:51;;;;;;;3.90;2.10;;;12.80;99.90;;;;;;5056447;28;20060;-73
2021/05/17 08:22:16;;;;;;;6.65;2.88;;;12.90;99.90;;;;;;5055901;28;20021;-73
2021/05/17 08:24:42;;;;;;;3.13;2.28;;;13.50;99.90;;;;;;5037723;28;20448;-72
2021/05/17 08:27:08;;;;;;;2.97;1.95;;;13.20;99.90;;;;;;5038422;28;20025;-75
2021/05/17 08:29:36;;;;;;;3.45;2.42;;;13.30;99.90;;;;;;5056576;28;20478;-72
2021/05/17 08:32:03;;;;;;;6.32;1.60;;;13.40;99.90;;;;;;5055933;28;20027;-73
2021/05/17 08:34:29;;;;;;;4.38;2.33;;;13.40;99.90;;;;;;5055296;28;20033;-73
2021/05/17 08:36:58;;;;;;;5.03;2.00;;;13.50;99.90;;;;;;5055353;28;20074;-73
2021/05/17 08:39:24;;;;;;;4.05;2.08;;;13.50;99.90;;;;;;5055049;28;20032;-73
2021/05/17 08:41:50;;;;;;;3.08;2.03;;;13.70;99.90;;;;;;5037769;28;20478;-75
2021/05/17 08:44:16;;;;;;;3.53;1.75;;;13.60;99.90;;;;;;5037823;28;20104;-73
2021/05/17 08:46:46;;;;;;;5.88;1.73;;;13.80;99.90;;;;;;5056376;28;20108;-75
2021/05/17 08:49:16;;;;;;;3.25;1.30;;;13.90;99.90;;;;;;5037824;28;20108;-73
2021/05/17 08:51:42;;;;;;;2.40;1.83;;;14.00;99.90;;;;;;5055566;28;20028;-75
2021/05/17 08:54:09;;;;;;;2.00;1.35;;;13.90;99.90;;;;;;5055518;28;20390;-75
2021/05/17 08:56:38;;;;;;;3.03;1.50;;;14.00;99.90;;;;;;5055190;28;20021;-74
2021/05/17 08:59:05;;;;;;;1.98;0.88;;;13.90;99.90;;;;;;5054461;28;20029;-74
2021/05/17 09:01:31;;;;;;;2.40;0.90;;;13.70;99.90;;;;;;5037017;28;20025;-74
2021/05/17 09:04:04;;;;;;;2.08;1.38;;;13.60;99.90;;;;;;5054927;28;20021;-72
2021/05/17 09:06:36;;;;;;;5.43;1.27;;;13.60;99.90;;;;;;5054987;28;20024;-74
2021/05/17 09:09:04;;;;;;;1.88;0.85;;;13.50;99.90;;;;;;5054932;28;20092;-74
2021/05/17 09:11:32;;;;;;;1.80;1.00;;;13.50;99.90;;;;;;5054720;28;20028;-73
2021/05/17 09:14:11;;;;;;;2.55;1.00;;;13.70;99.90;;;;;;5054226;28;20551;-73
2021/05/17 09:16:59;;;;;;;3.00;1.98;;;13.90;99.90;;;;;;5047817;28;20036;-75
2021/05/17 09:19:26;;;;;;;3.90;0.90;;;14.20;99.90;;;;;;5036625;28;20032;-73
2021/05/17 09:22:01;;;;;;;1.33;1.00;;;14.50;99.90;;;;;;5054237;28;20025;-73
2021/05/17 09:24:47;;;;;;;1.33;1.17;;;14.90;99.90;;;;;;5054398;28;20029;-72
2021/05/17 09:27:25;;;;;;;1.25;0.68;;;15.10;99.90;;;;;;5054360;28;20021;-74
2021/05/17 09:29:53;;;;;;;2.42;0.98;;;15.20;99.90;;;;;;5053757;28;20048;-74
2021/05/17 09:32:26;;;;;;;5.47;1.40;;;15.30;99.90;;;;;;5053919;28;20029;-72
2021/05/17 09:35:05;;;;;;;3.17;1.15;;;15.30;99.90;;;;;;5054313;28;20117;-76
2021/05/17 09:37:48;;;;;;;;;;;15.40;99.90;;;;;;5054920;28;20025;-72
2021/05/17 09:40:25;;;;;;;2.88;1.77;;;15.40;99.90;;;;;;5086968;22;19940;-73
2021/05/17 09:43:08;;;;;;;2.88;1.85;;;15.40;99.90;;;;;;5074743;28;20473;-72
2021/05/17 09:45:45;;;;;;;3.28;1.23;;;15.50;99.90;;;;;;5054444;28;20063;-72
2021/05/17 09:48:13;;;;;;;2.30;0.95;;;15.60;99.90;;;;;;5054332;28;20390;-73
2021/05/17 09:50:59;;;;;;;3.53;1.20;;;15.70;99.90;;;;;;5036282;28;20028;-74
2021/05/17 09:53:40;;;;;;;2.60;0.80;;;15.80;99.90;;;;;;5036342;28;20033;-74
2021/05/17 09:56:23;;;;;;;3.65;1.77;;;15.90;99.90;;;;;;5035929;28;20025;-75
2021/05/17 09:59:00;;;;;;;1.70;1.30;;;15.70;99.90;;;;;;5054324;28;20071;-73
2021/05/17 10:01:28;;;;;;;3.63;1.70;;;15.70;99.90;;;;;;5054089;28;20490;-75
2021/05/17 10:04:04;;;;;;;4.97;1.87;;;15.70;99.90;;;;;;5076577;22;20040;-74
2021/05/17 10:06:30;;;;;;;3.70;1.77;;;15.60;99.90;;;;;;5049731;28;20077;-74
2021/05/17 10:08:57;;;;;;;4.68;1.92;;;15.60;99.90;;;;;;5065127;28;20465;-74
2021/05/17 10:11:24;;;;;;;3.70;1.23;;;15.60;99.90;;;;;;5052868;28;20366;-75
2021/05/17 10:13:50;;;;;;;3.33;1.55;;;15.60;99.90;;;;;;5055963;28;20017;-74
2021/05/17 10:16:17;;;;;;;3.05;1.58;;;15.50;99.90;;;;;;5039647;28;20033;-72
2021/05/17 10:18:44;;;;;;;3.55;0.98;;;15.50;99.90;;;;;;5053870;28;20029;-73
2021/05/17 10:21:18;;;;;;;4.53;0.90;;;15.60;99.90;;;;;;5042524;28;20474;-73
2021/05/17 10:23:46;;;;;;;1.42;0.70;;;16.90;99.90;;;;;;5039543;28;20041;-72
2021/05/17 10:26:17;;;;;;;3.25;1.30;;;15.50;99.90;;;;;;5053966;28;20367;-72
2021/05/17 10:28:49;;;;;;;3.63;1.45;;;15.40;99.90;;;;;;5053669;28;20017;-72
2021/05/17 10:31:20;;;;;;;1.10;1.00;;;15.30;99.90;;;;;;5053991;28;20025;-72
2021/05/17 10:34:00;;;;;;;2.67;1.27;;;15.20;99.90;;;;;;5036082;28;20032;-74
2021/05/17 10:36:59;;;;;;;2.55;1.40;;;15.10;99.90;;;;;;5048283;28;20058;-73
2021/05/17 10:39:32;;;;;;;0.85;0.40;;;14.80;99.90;;;;;;5073786;28;20020;-72
2021/05/17 10:42:19;;;;;;;1.52;0.55;;;14.50;99.90;;;;;;5072585;28;20139;-75
2021/05/17 10:48:10;;;;;;;2.15;0.40;;;13.80;99.90;;;;;;5067448;28;20048;-73
2021/05/17 10:50:37;;;;;;;1.25;0.25;;;13.50;99.90;;;;;;5036269;28;20049;-75
2021/05/17 10:53:02;;;;;;;0.65;0.32;;;13.30;99.90;;;;;;5069795;28;20036;-75
2021/05/17 10:55:29;;;;;;;1.83;0.75;;;13.10;99.90;;;;;;5073562;28;20465;-75
2021/05/17 11:00:21;;;;;;;2.42;0.85;;;12.90;99.90;;;;;;5053477;28;20035;-75
2021/05/17 11:00:44;;;;;;;2.38;0.90;;;12.70;99.90;;;;;;5072134;28;20028;-73
2021/05/17 11:03:25;;;;;;;0.88;0.30;;;12.60;99.90;;;;;;5069461;28;20433;-75
2021/05/17 11:05:54;;;;;;;0.73;0.40;;;12.40;99.90;;;;;;5035169;28;20126;-75
2021/05/17 11:08:19;;;;;;;3.92;0.57;;;12.40;99.90;;;;;;5036135;28;20017;-75
2021/05/17 11:10:54;;;;;;;0.65;0.15;;;12.30;99.90;;;;;;5052911;28;20127;-75
2021/05/17 11:13:22;;;;;;;1.92;0.40;;;12.30;99.90;;;;;;5071903;28;20550;-75
2021/05/17 11:16:01;;;;;;;1.20;0.20;;;12.30;99.90;;;;;;5044863;28;20021;-72
2021/05/17 11:18:48;;;;;;;1.70;0.10;;;12.40;99.90;;;;;;5054245;28;20576;-72
2021/05/17 11:21:21;;;;;;;0.75;0.10;;;12.50;99.90;;;;;;5058800;28;20067;-73
2021/05/17 11:23:52;;;;;;;1.17;0.20;;;14.80;99.90;;;;;;5053771;28;20032;-75
2021/05/17 11:26:20;;;;;;;0.52;0.10;;;12.70;99.90;;;;;;5056156;28;20385;-72
2021/05/17 11:28:48;;;;;;;2.17;0.98;;;12.80;99.90;;;;;;5054828;28;20016;-72
2021/05/17 11:33:57;;;;;;;0.45;0.00;;;13.00;99.90;;;;;;5052816;28;20102;-73
2021/05/17 11:36:39;;;;;;;1.08;0.43;;;13.10;99.90;;;;;;5054717;28;20389;-73
2021/05/17 11:39:10;;;;;;;0.52;0.00;;;13.30;99.90;;;;;;5053610;28;20055;-75
2021/05/17 11:42:02;;;;;;;0.30;0.08;;;13.50;99.90;;;;;;5065696;28;20029;-75
2021/05/17 11:44:36;;;;;;;1.15;0.10;;;13.80;99.90;;;;;;5070570;28;20501;-75
2021/05/17 11:47:19;;;;;;;1.67;0.32;;;14.10;99.90;;;;;;5056621;28;20082;-72
2021/05/17 11:49:45;;;;;;;1.30;0.15;;;14.40;99.90;;;;;;5074499;28;20028;-72
2021/05/17 11:52:13;;;;;;;0.57;0.10;;;14.80;99.90;;;;;;5058360;28;20384;-73
2021/05/17 11:54:42;;;;;;;0.10;0.00;;;15.20;99.90;;;;;;5046913;28;20485;-76
2021/05/17 11:57:08;;;;;;;;;;;15.50;99.90;;;;;;5072663;28;20115;-75
2021/05/17 11:59:35;;;;;;;0.17;0.17;;;16.00;99.90;;;;;;5072300;28;20406;-75
2021/05/17 12:02:03;;;;;;;1.25;0.10;;;16.60;99.90;;;;;;5057527;28;20382;-76
2021/05/17 12:04:34;;;;;;;0.47;0.08;;;17.30;99.90;;;;;;5072423;28;20366;-77
2021/05/17 12:07:14;;;;;;;0.30;0.00;;;17.50;99.90;;;;;;5056234;28;20043;-76
2021/05/17 12:09:40;;;;;;;0.32;0.10;;;17.20;99.90;;;;;;5074268;28;20505;-73
2021/05/17 12:12:12;;;;;;;0.95;0.00;;;17.20;99.90;;;;;;5059871;28;20052;-77
2021/05/17 12:14:41;;;;;;;0.63;0.10;;;17.30;99.90;;;;;;5056337;28;20029;-74
2021/05/17 12:17:13;;;;;;;0.57;0.30;;;17.70;99.90;;;;;;5057036;28;20074;-76
2021/05/17 12:19:40;;;;;;;0.63;0.10;;;18.20;99.90;;;;;;5055764;28;20036;-76
2021/05/17 12:22:16;;;;;;;0.95;0.17;;;19.00;99.90;;;;;;5038106;28;20145;-75
2021/05/17 12:24:42;;;;;;;1.15;0.10;;;19.10;99.90;;;;;;5075326;28;20044;-74
2021/05/17 12:27:13;;;;;;;0.10;0.00;;;19.00;99.90;;;;;;5057700;28;20516;-75
2021/05/17 12:29:49;;;;;;;0.47;0.00;;;18.90;99.90;;;;;;5056006;28;20075;-74
2021/05/17 12:32:20;;;;;;;1.63;0.52;;;19.00;99.90;;;;;;5075612;28;20060;-76
2021/05/17 12:34:57;;;;;;;2.17;0.82;;;18.20;99.90;;;;;;5037550;28;20032;-75
2021/05/17 12:37:26;;;;;;;3.85;2.60;;;17.60;99.90;;;;;;5053189;28;20378;-75
2021/05/17 12:40:30;;;;;;;4.03;2.92;;;16.90;99.90;;;;;;5075618;28;20362;-76
2021/05/17 12:43:34;;;;;;;8.27;3.10;;;16.00;99.90;;;;;;4996684;28;20487;-77
2021/05/17 12:46:02;;;;;;;8.00;4.38;;;15.60;99.90;;;;;;5056310;28;20029;-75
2021/05/17 12:48:39;;;;;;;6.60;3.83;;;15.20;99.90;;;;;;5037402;28;20016;-75
2021/05/17 12:51:25;;;;;;;6.93;4.35;;;15.00;99.90;;;;;;5037281;28;20021;-75
2021/05/17 12:54:09;;;;;;;8.98;3.83;;;14.80;99.90;;;;;;5037798;28;20021;-76
2021/05/17 12:56:35;;;;;;;6.50;4.38;;;14.70;99.90;;;;;;5066777;28;20086;-76
2021/05/17 12:59:13;;;;;;;10.00;4.43;;;14.70;99.90;;;;;;5075656;28;20039;-76
2021/05/17 13:01:40;;;;;;;11.00;4.80;;;14.80;99.90;;;;;;5039611;28;20033;-73
2021/05/17 13:04:07;;;;;;;8.38;4.93;;;14.90;99.90;;;;;;5054752;28;20504;-73
2021/05/17 13:06:33;;;;;;;8.68;5.70;;;15.10;99.90;;;;;;5055112;28;20066;-74
2021/05/17 13:09:01;;;;;;;7.40;4.60;;;15.40;99.90;;;;;;5055076;28;20100;-74
2021/05/17 13:11:34;;;;;;;9.65;4.80;;;15.80;99.90;;;;;;5054912;28;20024;-73
2021/05/17 13:14:23;;;;;;;6.32;4.28;;;16.10;99.90;;;;;;5054894;28;20021;-75
2021/05/17 13:16:57;;;;;;;5.50;2.58;;;16.40;99.90;;;;;;5054997;28;20136;-73
2021/05/17 13:22:33;;;;;;;22.02;1.45;;;17.10;99.90;;;;;;5055522;28;20037;-75
2021/05/17 13:33:00;;;;;;;1.77;0.57;;;17.20;99.90;;;;;;5054789;28;20048;-74
2021/05/17 13:35:26;;;;;;;1.25;0.35;;;17.20;99.90;;;;;;5037318;28;20489;-77